createdAt,value
2022-09-23T00:01:40.350Z,0
2022-09-23T00:03:42.058Z,0
2022-09-23T00:05:43.617Z,0
2022-09-23T00:07:45.399Z,0
2022-09-23T00:09:46.773Z,0
2022-09-23T00:11:48.412Z,0
2022-09-23T00:13:49.541Z,0
2022-09-23T00:15:51.028Z,0
2022-09-23T00:17:52.282Z,0
2022-09-23T00:19:54.202Z,0
2022-09-23T00:21:56.213Z,0
2022-09-23T00:23:57.828Z,0
2022-09-23T00:25:59.700Z,0
2022-09-23T00:30:02.112Z,0
2022-09-23T00:32:03.195Z,0
2022-09-23T00:34:04.496Z,0
2022-09-23T00:36:06.220Z,0
2022-09-23T00:40:09.439Z,0
2022-09-23T00:42:10.917Z,0
2022-09-23T00:44:12.582Z,0
2022-09-23T00:46:14.309Z,0
2022-09-23T00:48:15.449Z,0
2022-09-23T00:50:16.641Z,0
2022-09-23T00:52:18.234Z,0
2022-09-23T00:54:19.981Z,0
2022-09-23T00:56:21.510Z,0
2022-09-23T00:58:22.511Z,0
2022-09-23T01:00:23.721Z,0
2022-09-23T01:02:25.386Z,0
2022-09-23T01:04:26.825Z,0
2022-09-23T01:06:27.937Z,0
2022-09-23T01:08:29.709Z,0
2022-09-23T01:12:32.366Z,0
2022-09-23T01:14:34.007Z,0
2022-09-23T01:16:35.832Z,0
2022-09-23T01:18:36.944Z,0
2022-09-23T01:22:39.375Z,0
2022-09-23T01:24:40.563Z,0
2022-09-23T01:26:42.139Z,0
2022-09-23T01:28:44.071Z,0
2022-09-23T01:30:45.612Z,0
2022-09-23T01:32:47.393Z,0
2022-09-23T01:34:49.083Z,0
2022-09-23T01:36:50.300Z,0
2022-09-23T01:38:51.794Z,0
2022-09-23T01:40:53.141Z,0
2022-09-23T01:42:54.725Z,0
2022-09-23T01:44:56.107Z,0
2022-09-23T01:46:57.296Z,0
2022-09-23T01:48:58.861Z,0
2022-09-23T01:51:00.411Z,0
2022-09-23T01:55:04.093Z,0
2022-09-23T01:57:05.767Z,0
2022-09-23T01:59:07.546Z,0
2022-09-23T02:01:09.157Z,0
2022-09-23T02:05:12.462Z,0
2022-09-23T02:07:14.066Z,0
2022-09-23T02:09:15.483Z,0
2022-09-23T02:11:16.578Z,0
2022-09-23T02:13:17.808Z,0
2022-09-23T02:15:19.351Z,0
2022-09-23T02:17:20.863Z,0
2022-09-23T02:19:22.074Z,0
2022-09-23T02:21:23.886Z,0
2022-09-23T02:23:25.086Z,0
2022-09-23T02:25:26.508Z,0
2022-09-23T02:27:28.137Z,0
2022-09-23T02:29:29.961Z,0
2022-09-23T02:31:31.630Z,0
2022-09-23T02:33:33.350Z,0
2022-09-23T02:35:34.651Z,0
2022-09-23T02:37:36.283Z,0
2022-09-23T02:39:38.193Z,0
2022-09-23T02:41:39.435Z,0
2022-09-23T02:43:41.091Z,0
2022-09-23T02:45:42.250Z,0
2022-09-23T02:47:43.496Z,0
2022-09-23T02:49:45.318Z,0
2022-09-23T02:51:46.997Z,0
2022-09-23T02:53:48.931Z,0
2022-09-23T02:55:50.705Z,0
2022-09-23T02:57:52.553Z,0
2022-09-23T02:59:54.219Z,0
2022-09-23T03:01:56.129Z,0
2022-09-23T03:03:57.462Z,0
2022-09-23T03:05:59.021Z,0
2022-09-23T03:08:00.469Z,0
2022-09-23T03:10:02.441Z,0
2022-09-23T03:12:04.062Z,0
2022-09-23T03:14:05.660Z,0
2022-09-23T03:16:07.303Z,0
2022-09-23T03:18:09.260Z,0
2022-09-23T03:20:10.797Z,0
2022-09-23T03:22:12.627Z,0
2022-09-23T03:24:14.005Z,0
2022-09-23T03:26:15.579Z,0
2022-09-23T03:30:18.816Z,0
2022-09-23T03:32:20.584Z,0
2022-09-23T03:34:22.403Z,0
2022-09-23T03:36:24.169Z,0
2022-09-23T03:38:25.229Z,0
2022-09-23T03:40:27.126Z,0
2022-09-23T03:42:28.992Z,0
2022-09-23T03:44:30.151Z,0
2022-09-23T03:46:31.438Z,0
2022-09-23T03:48:33.191Z,0
2022-09-23T03:50:35.182Z,0
2022-09-23T03:52:37.161Z,0
2022-09-23T03:54:38.777Z,0
2022-09-23T03:56:40.511Z,0
2022-09-23T04:00:43.345Z,0
2022-09-23T04:02:44.664Z,0
2022-09-23T04:08:48.805Z,0
2022-09-23T04:12:52.072Z,0
2022-09-23T04:14:53.400Z,0
2022-09-23T04:16:55.261Z,0
2022-09-23T04:18:56.448Z,0
2022-09-23T04:20:57.943Z,0
2022-09-23T04:22:59.772Z,0
2022-09-23T04:25:01.298Z,0
2022-09-23T04:27:03.170Z,0
2022-09-23T04:29:04.873Z,0
2022-09-23T04:31:05.930Z,0
2022-09-23T04:33:07.216Z,0
2022-09-23T04:35:08.797Z,0
2022-09-23T04:37:10.323Z,0
2022-09-23T04:39:11.527Z,0
2022-09-23T04:41:13.431Z,0
2022-09-23T04:43:14.729Z,0
2022-09-23T04:45:16.735Z,0
2022-09-23T04:47:18.160Z,0
2022-09-23T04:49:19.462Z,0
2022-09-23T04:51:20.849Z,0
2022-09-23T04:53:22.817Z,0
2022-09-23T04:55:24.317Z,0
2022-09-23T04:57:25.822Z,0
2022-09-23T04:59:27.682Z,0
2022-09-23T05:01:28.956Z,0
2022-09-23T05:03:30.056Z,0
2022-09-23T05:05:31.298Z,0
2022-09-23T05:07:32.889Z,0
2022-09-23T05:09:34.365Z,0
2022-09-23T05:11:35.684Z,0
2022-09-23T05:13:37.426Z,0
2022-09-23T05:15:38.903Z,0
2022-09-23T05:17:40.771Z,0
2022-09-23T05:19:42.263Z,0
2022-09-23T05:21:43.910Z,0
2022-09-23T05:23:45.683Z,0
2022-09-23T05:25:47.392Z,0
2022-09-23T05:27:48.857Z,0
2022-09-23T05:29:50.092Z,0
2022-09-23T05:31:51.310Z,0
2022-09-23T05:33:52.965Z,0
2022-09-23T05:35:54.179Z,0
2022-09-23T05:37:56.113Z,0
2022-09-23T05:39:57.544Z,0
2022-09-23T05:41:59.152Z,0
2022-09-23T05:44:01.023Z,0
2022-09-23T05:46:05.955Z,0
2022-09-23T05:48:04.568Z,0
2022-09-23T05:50:06.339Z,0
2022-09-23T05:52:07.415Z,0
2022-09-23T05:54:08.825Z,0
2022-09-23T05:56:10.017Z,0
2022-09-23T05:58:11.915Z,0
2022-09-23T06:00:13.665Z,0
2022-09-23T06:02:15.339Z,0
2022-09-23T06:04:16.353Z,0
2022-09-23T06:06:17.874Z,0
2022-09-23T06:08:19.344Z,0
2022-09-23T06:10:20.650Z,0
2022-09-23T06:12:21.920Z,0
2022-09-23T06:14:23.459Z,0
2022-09-23T06:16:25.063Z,0
2022-09-23T06:18:26.581Z,0
2022-09-23T06:20:28.578Z,0
2022-09-23T06:22:30.191Z,0
2022-09-23T06:23:14.097Z,0
2022-09-23T06:27:17.858Z,0
2022-09-23T06:29:19.560Z,0
2022-09-23T06:31:20.642Z,0
2022-09-23T06:33:29.327Z,0
2022-09-23T06:35:26.825Z,0
2022-09-23T06:37:25.144Z,0
2022-09-23T06:39:26.957Z,0
2022-09-23T06:43:29.393Z,0
2022-09-23T06:45:30.954Z,0
2022-09-23T06:47:32.038Z,0.561
2022-09-23T06:49:33.982Z,0.14
2022-09-23T06:53:36.464Z,0
2022-09-23T06:55:37.919Z,0.28
2022-09-23T06:57:39.183Z,0
2022-09-23T06:59:40.546Z,0
2022-09-23T07:01:41.694Z,0
2022-09-23T07:03:43.331Z,0
2022-09-23T07:05:44.992Z,0
2022-09-23T07:07:46.412Z,0
2022-09-23T07:09:47.735Z,0
2022-09-23T07:11:49.465Z,0
2022-09-23T07:13:50.960Z,0
2022-09-23T07:15:52.589Z,0
2022-09-23T07:17:54.469Z,0
2022-09-23T07:19:55.598Z,0
2022-09-23T07:21:56.626Z,0
2022-09-23T07:23:58.437Z,0.561
2022-09-23T07:26:00.075Z,0.28
2022-09-23T07:28:02.012Z,0.28
2022-09-23T07:30:03.631Z,0.421
2022-09-23T07:32:11.217Z,0
2022-09-23T07:34:05.864Z,0
2022-09-23T07:36:07.017Z,0.14
2022-09-23T07:38:08.164Z,1.263
2022-09-23T07:40:09.111Z,0.421
2022-09-23T07:42:10.508Z,1.965
2022-09-23T07:44:12.222Z,1.825
2022-09-23T07:46:14.441Z,0
2022-09-23T07:48:16.225Z,0.561
2022-09-23T07:50:17.635Z,0.421
2022-09-23T07:52:18.530Z,0.14
2022-09-23T07:54:20.146Z,0
2022-09-23T07:56:21.320Z,0
2022-09-23T07:58:22.653Z,0
2022-09-23T08:00:23.952Z,0.28
2022-09-23T08:02:25.613Z,0.14
2022-09-23T08:04:26.618Z,0.982
2022-09-23T08:06:27.630Z,0
2022-09-23T08:08:28.961Z,0
2022-09-23T08:12:31.784Z,1.404
2022-09-23T08:14:33.043Z,0.14
2022-09-23T08:16:34.775Z,0.14
2022-09-23T08:18:36.241Z,0.14
2022-09-23T08:20:37.200Z,0.561
2022-09-23T08:22:38.352Z,2.386
2022-09-23T08:24:39.713Z,1.825
2022-09-23T08:28:41.743Z,0.14
2022-09-23T08:30:43.706Z,0
2022-09-23T08:32:45.416Z,0
2022-09-23T08:34:47.083Z,1.825
2022-09-23T08:36:48.899Z,1.684
2022-09-23T08:38:50.618Z,1.825
2022-09-23T08:40:51.737Z,1.404
2022-09-23T08:42:53.974Z,0
2022-09-23T08:44:54.858Z,0.14
2022-09-23T08:46:56.668Z,0
2022-09-23T08:48:57.588Z,0
2022-09-23T08:50:58.924Z,0
2022-09-23T08:55:02.197Z,0.561
2022-09-23T08:57:03.205Z,0.14
2022-09-23T08:59:04.700Z,0.28
2022-09-23T09:01:05.759Z,0
2022-09-23T09:03:06.853Z,0.561
2022-09-23T09:05:07.747Z,0
2022-09-23T09:07:32.178Z,1.123
2022-09-23T09:09:10.448Z,0
2022-09-23T09:11:12.994Z,0.702
2022-09-23T09:13:14.035Z,0.842
2022-09-23T09:15:15.087Z,0.14
2022-09-23T09:17:15.931Z,0.561
2022-09-23T09:19:17.086Z,0
2022-09-23T09:21:18.817Z,0
2022-09-23T09:23:20.006Z,0
2022-09-23T09:25:21.548Z,0
2022-09-23T09:27:23.266Z,0
2022-09-23T09:29:34.669Z,0.14
2022-09-23T09:31:25.224Z,0
2022-09-23T09:33:26.212Z,1.404
2022-09-23T09:35:27.192Z,0.421
2022-09-23T09:37:28.219Z,1.825
2022-09-23T09:39:29.588Z,0
2022-09-23T09:41:30.792Z,0.842
2022-09-23T09:43:32.305Z,1.263
2022-09-23T09:45:33.838Z,1.965
2022-09-23T09:47:35.050Z,1.825
2022-09-23T09:49:40.437Z,0.702
2022-09-23T09:51:38.375Z,0.561
2022-09-23T09:53:39.436Z,0
2022-09-23T09:55:40.806Z,0.982
2022-09-23T09:57:42.347Z,1.965
2022-09-23T09:59:43.894Z,0.982
2022-09-23T10:01:45.125Z,3.088
2022-09-23T10:03:46.400Z,0.421
2022-09-23T10:05:47.716Z,1.544
2022-09-23T10:07:49.402Z,0.421
2022-09-23T10:09:51.232Z,0.421
2022-09-23T10:11:52.110Z,2.246
2022-09-23T10:13:53.743Z,1.965
2022-09-23T10:15:55.540Z,3.51
2022-09-23T10:17:57.279Z,1.123
2022-09-23T10:19:58.664Z,3.229
2022-09-23T10:22:00.300Z,0
2022-09-23T10:24:01.959Z,0.561
2022-09-23T10:26:02.975Z,0.561
2022-09-23T10:28:07.910Z,1.263
2022-09-23T10:30:05.638Z,3.229
2022-09-23T10:32:07.077Z,0.421
2022-09-23T10:36:08.989Z,1.123
2022-09-23T10:38:10.227Z,0.842
2022-09-23T10:40:11.771Z,3.369
2022-09-23T10:42:12.560Z,1.404
2022-09-23T10:44:13.799Z,2.667
2022-09-23T10:46:15.524Z,5.616
2022-09-23T10:48:17.028Z,4.773
2022-09-23T10:50:18.537Z,1.684
2022-09-23T10:52:19.900Z,0.702
2022-09-23T10:54:20.900Z,1.404
2022-09-23T10:56:22.219Z,1.544
2022-09-23T10:58:23.707Z,3.931
2022-09-23T11:00:24.693Z,1.404
2022-09-23T11:02:26.253Z,1.965
2022-09-23T11:04:27.911Z,2.246
2022-09-23T11:06:28.949Z,1.965
2022-09-23T11:08:30.401Z,2.386
2022-09-23T11:10:45.321Z,1.544
2022-09-23T11:12:32.388Z,1.544
2022-09-23T11:14:34.128Z,4.773
2022-09-23T11:18:36.597Z,0
2022-09-23T11:20:38.376Z,3.79
2022-09-23T11:22:40.106Z,2.386
2022-09-23T11:24:41.389Z,0.28
2022-09-23T11:26:42.295Z,4.492
2022-09-23T11:28:44.089Z,5.054
2022-09-23T11:30:45.213Z,4.633
2022-09-23T11:32:46.369Z,3.369
2022-09-23T11:34:49.894Z,3.088
2022-09-23T11:36:48.702Z,3.229
2022-09-23T11:38:49.573Z,1.263
2022-09-23T11:40:51.177Z,3.51
2022-09-23T11:42:53.045Z,3.931
2022-09-23T11:44:54.510Z,4.352
2022-09-23T11:46:56.085Z,0.421
2022-09-23T11:50:59.321Z,5.475
2022-09-23T11:53:00.559Z,2.246
2022-09-23T11:55:04.226Z,1.684
2022-09-23T11:57:03.455Z,2.808
2022-09-23T11:59:04.462Z,4.492
2022-09-23T12:01:05.594Z,6.458
2022-09-23T12:03:06.847Z,3.088
2022-09-23T12:05:07.816Z,0.561
2022-09-23T12:07:09.232Z,1.965
2022-09-23T12:09:10.992Z,1.825
2022-09-23T12:11:11.939Z,0
2022-09-23T12:13:13.307Z,1.544
2022-09-23T12:15:14.869Z,0
2022-09-23T12:17:16.028Z,1.684
2022-09-23T12:19:17.183Z,3.931
2022-09-23T12:21:32.965Z,1.825
2022-09-23T12:23:20.045Z,2.527
2022-09-23T12:25:20.930Z,4.773
2022-09-23T12:27:22.494Z,4.212
2022-09-23T12:29:23.836Z,1.825
2022-09-23T12:31:25.164Z,3.51
2022-09-23T12:33:26.680Z,2.106
2022-09-23T12:35:27.482Z,0.421
2022-09-23T12:37:29.286Z,1.965
2022-09-23T12:39:30.482Z,4.914
2022-09-23T12:41:32.213Z,4.071
2022-09-23T12:43:33.850Z,3.931
2022-09-23T12:45:35.283Z,3.931
2022-09-23T12:49:37.898Z,0
2022-09-23T12:51:39.455Z,1.123
2022-09-23T12:53:40.566Z,3.931
2022-09-23T12:55:41.877Z,0
2022-09-23T12:59:44.564Z,4.914
2022-09-23T13:01:45.630Z,4.071
2022-09-23T13:03:46.489Z,2.527
2022-09-23T13:05:47.289Z,2.246
2022-09-23T13:07:49.030Z,1.404
2022-09-23T13:08:42.782Z,3.369
2022-09-23T13:10:43.810Z,3.229
2022-09-23T13:12:44.713Z,2.527
2022-09-23T13:14:45.894Z,6.458
2022-09-23T13:16:46.858Z,4.633
2022-09-23T13:18:48.114Z,2.667
2022-09-23T13:20:49.349Z,3.79
2022-09-23T13:22:50.205Z,4.773
2022-09-23T13:26:52.287Z,1.684
2022-09-23T13:28:54.075Z,2.948
2022-09-23T13:30:55.612Z,3.931
2022-09-23T13:32:56.927Z,3.931
2022-09-23T13:36:59.296Z,4.212
2022-09-23T13:39:00.772Z,4.212
2022-09-23T13:41:02.168Z,5.475
2022-09-23T13:43:03.815Z,5.756
2022-09-23T13:45:05.606Z,6.458
2022-09-23T13:47:06.624Z,6.037
2022-09-23T13:49:08.159Z,5.616
2022-09-23T13:51:09.506Z,5.054
2022-09-23T13:53:11.700Z,1.544
2022-09-23T13:55:12.742Z,0
2022-09-23T13:57:14.463Z,2.527
2022-09-23T13:59:15.349Z,1.404
2022-09-23T14:01:16.475Z,0.561
2022-09-23T14:03:17.853Z,4.071
2022-09-23T14:05:18.682Z,2.527
2022-09-23T14:09:21.862Z,2.106
2022-09-23T14:11:22.892Z,3.088
2022-09-23T14:13:25.825Z,1.965
2022-09-23T14:15:25.190Z,1.263
2022-09-23T14:19:27.855Z,6.458
2022-09-23T14:21:29.307Z,2.948
2022-09-23T14:23:31.093Z,5.756
2022-09-23T14:25:32.032Z,4.212
2022-09-23T14:27:33.916Z,1.544
2022-09-23T14:29:35.587Z,4.492
2022-09-23T14:31:37.158Z,2.808
2022-09-23T14:33:38.347Z,3.931
2022-09-23T14:35:39.499Z,5.335
2022-09-23T14:37:41.147Z,3.369
2022-09-23T14:39:42.378Z,0.561
2022-09-23T14:41:43.830Z,2.527
2022-09-23T14:43:45.608Z,3.79
2022-09-23T14:45:46.686Z,3.088
2022-09-23T14:47:47.465Z,5.194
2022-09-23T14:51:50.412Z,7.441
2022-09-23T14:53:51.410Z,4.212
2022-09-23T14:55:52.455Z,4.071
2022-09-23T14:57:54.095Z,6.458
2022-09-23T14:59:55.652Z,2.527
2022-09-23T15:01:56.598Z,2.948
2022-09-23T15:03:57.687Z,4.352
2022-09-23T15:05:59.056Z,3.65
2022-09-23T15:08:00.480Z,4.492
2022-09-23T15:10:01.953Z,3.51
2022-09-23T15:12:03.290Z,0.14
2022-09-23T15:14:26.288Z,4.212
2022-09-23T15:16:06.280Z,0.982
2022-09-23T15:18:07.898Z,1.263
2022-09-23T15:20:09.239Z,2.948
2022-09-23T15:22:10.820Z,3.931
2022-09-23T15:24:12.000Z,3.369
2022-09-23T15:26:13.638Z,0.14
2022-09-23T15:30:16.584Z,4.071
2022-09-23T15:32:18.137Z,1.965
2022-09-23T15:34:19.736Z,0.702
2022-09-23T15:36:20.675Z,2.667
2022-09-23T15:38:22.442Z,4.352
2022-09-23T15:40:24.021Z,2.667
2022-09-23T15:42:25.108Z,0.702
2022-09-23T15:44:26.765Z,3.088
2022-09-23T15:46:28.007Z,2.106
2022-09-23T15:48:29.627Z,3.369
2022-09-23T15:50:30.471Z,0.561
2022-09-23T15:52:31.590Z,4.212
2022-09-23T15:54:33.350Z,3.369
2022-09-23T15:56:34.725Z,0.842
2022-09-23T15:58:36.482Z,1.825
2022-09-23T16:00:38.133Z,3.229
2022-09-23T16:02:39.571Z,1.965
2022-09-23T16:04:41.006Z,5.616
2022-09-23T16:06:42.568Z,4.773
2022-09-23T16:08:43.556Z,3.65
2022-09-23T16:10:44.698Z,0.842
2022-09-23T16:12:45.890Z,1.965
2022-09-23T16:14:47.530Z,2.246
2022-09-23T16:16:48.859Z,1.825
2022-09-23T16:18:49.684Z,1.544
2022-09-23T16:22:52.992Z,2.667
2022-09-23T16:24:54.660Z,1.825
2022-09-23T16:26:56.172Z,0.842
2022-09-23T16:28:57.062Z,0
2022-09-23T16:32:59.698Z,1.263
2022-09-23T16:35:01.557Z,0.14
2022-09-23T16:37:03.102Z,0.842
2022-09-23T16:39:04.431Z,2.527
2022-09-23T16:41:06.172Z,0
2022-09-23T16:43:07.942Z,0.14
2022-09-23T16:45:09.459Z,1.123
2022-09-23T16:47:10.373Z,0.421
2022-09-23T16:49:11.601Z,1.825
2022-09-23T16:51:12.536Z,0.702
2022-09-23T16:55:15.680Z,1.544
2022-09-23T16:57:16.977Z,1.684
2022-09-23T16:59:18.550Z,0.561
2022-09-23T17:01:20.091Z,0
2022-09-23T17:05:22.767Z,2.106
2022-09-23T17:07:23.699Z,0
2022-09-23T17:09:24.688Z,0
2022-09-23T17:11:26.281Z,0
2022-09-23T17:13:27.530Z,0
2022-09-23T17:15:28.660Z,0
2022-09-23T17:17:30.214Z,0
2022-09-23T17:19:31.348Z,0
2022-09-23T17:21:32.558Z,0
2022-09-23T17:23:33.559Z,0
2022-09-23T17:25:34.875Z,0.842
2022-09-23T17:27:36.507Z,0
2022-09-23T17:29:38.393Z,0
2022-09-23T17:31:39.714Z,0
2022-09-23T17:33:40.400Z,0
2022-09-23T17:35:41.594Z,0
2022-09-23T17:37:42.988Z,0
2022-09-23T17:39:44.243Z,0
2022-09-23T17:41:46.060Z,0
2022-09-23T17:43:47.267Z,0
2022-09-23T17:45:48.395Z,0
2022-09-23T17:47:49.812Z,0
2022-09-23T17:49:51.321Z,0
2022-09-23T17:51:52.697Z,0
2022-09-23T17:53:54.633Z,0
2022-09-23T17:55:55.817Z,0
2022-09-23T17:57:57.162Z,0
2022-09-23T17:59:59.031Z,0.14
2022-09-23T18:04:01.046Z,0
2022-09-23T18:06:02.641Z,0
2022-09-23T18:08:06.076Z,0
2022-09-23T18:10:06.194Z,0
2022-09-23T18:14:09.262Z,0
2022-09-23T18:16:10.464Z,0
2022-09-23T18:18:11.573Z,0
2022-09-23T18:20:12.578Z,0
2022-09-23T18:22:14.195Z,0
2022-09-23T18:24:32.134Z,0
2022-09-23T18:26:17.093Z,0
2022-09-23T18:28:18.278Z,0
2022-09-23T18:30:19.926Z,0
2022-09-23T18:32:21.185Z,0
2022-09-23T18:36:24.112Z,0
2022-09-23T18:38:25.026Z,0
2022-09-23T18:40:26.104Z,0
2022-09-23T18:42:27.975Z,0
2022-09-23T18:46:30.853Z,0
2022-09-23T18:48:32.449Z,0
2022-09-23T18:50:33.817Z,0
2022-09-23T18:54:36.503Z,0
2022-09-23T18:56:37.939Z,0
2022-09-23T18:58:39.821Z,0
2022-09-23T19:00:41.351Z,0
2022-09-23T19:02:42.847Z,0
2022-09-23T19:04:44.536Z,0
2022-09-23T19:06:46.099Z,0
2022-09-23T19:08:47.733Z,0
2022-09-23T19:10:49.355Z,0
2022-09-23T19:12:50.534Z,0
2022-09-23T19:14:52.257Z,0
2022-09-23T19:16:53.503Z,0
2022-09-23T19:18:54.785Z,0
2022-09-23T19:20:56.301Z,0
2022-09-23T19:22:57.791Z,0
2022-09-23T19:24:59.263Z,0
2022-09-23T19:29:01.699Z,0
2022-09-23T19:31:03.553Z,0
2022-09-23T19:33:05.299Z,0
2022-09-23T19:35:07.026Z,0
2022-09-23T19:39:10.569Z,0
2022-09-23T19:41:12.421Z,0
2022-09-23T19:43:14.233Z,0
2022-09-23T19:45:15.454Z,0
2022-09-23T19:47:16.446Z,0
2022-09-23T19:49:17.452Z,0
2022-09-23T19:51:18.779Z,0
2022-09-23T19:53:22.838Z,0
2022-09-23T19:54:04.579Z,0
2022-09-23T19:56:06.386Z,0
2022-09-23T19:58:07.761Z,0
2022-09-23T20:00:08.951Z,0
2022-09-23T20:02:10.134Z,0
2022-09-23T20:04:11.718Z,0
2022-09-23T20:06:12.780Z,0
2022-09-23T20:08:13.794Z,0
2022-09-23T20:12:17.039Z,0
2022-09-23T20:14:18.686Z,0
2022-09-23T20:16:20.659Z,0
2022-09-23T20:18:21.925Z,0
2022-09-23T20:20:23.113Z,0
2022-09-23T20:22:24.051Z,0
2022-09-23T20:24:25.018Z,0
2022-09-23T20:26:26.148Z,0
2022-09-23T20:28:27.663Z,0
2022-09-23T20:32:30.007Z,0
2022-09-23T20:34:31.840Z,0
2022-09-23T20:36:32.920Z,0
2022-09-23T20:38:34.609Z,0
2022-09-23T20:40:36.365Z,0
2022-09-23T20:42:37.682Z,0
2022-09-23T20:44:38.980Z,0
2022-09-23T20:46:44.084Z,0
2022-09-23T20:48:41.637Z,0
2022-09-23T20:50:42.968Z,0
2022-09-23T20:52:44.351Z,0
2022-09-23T20:54:46.256Z,0
2022-09-23T20:56:47.479Z,0
2022-09-23T20:58:49.267Z,0
2022-09-23T21:02:51.895Z,0
2022-09-23T21:04:53.058Z,0
2022-09-23T21:06:54.211Z,0
2022-09-23T21:08:55.944Z,0
2022-09-23T21:10:57.844Z,0
2022-09-23T21:15:00.676Z,0
2022-09-23T21:17:01.875Z,0
2022-09-23T21:19:03.016Z,0
2022-09-23T21:21:04.053Z,0
2022-09-23T21:23:05.955Z,0
2022-09-23T21:25:27.767Z,0
2022-09-23T21:27:09.092Z,0
2022-09-23T21:29:10.573Z,0
2022-09-23T21:31:12.242Z,0
2022-09-23T21:33:13.207Z,0
2022-09-23T21:35:14.528Z,0
2022-09-23T21:37:16.472Z,0
2022-09-23T21:39:18.036Z,0
2022-09-23T21:41:19.941Z,0
2022-09-23T21:43:21.544Z,0
2022-09-23T21:45:22.513Z,0
2022-09-23T21:47:24.296Z,0
2022-09-23T21:49:25.995Z,0
2022-09-23T21:51:27.611Z,0
2022-09-23T21:53:29.325Z,0
2022-09-23T21:57:31.711Z,0
2022-09-23T21:59:33.274Z,0
2022-09-23T22:01:35.187Z,0
2022-09-23T22:03:36.582Z,0
2022-09-23T22:05:38.146Z,0
2022-09-23T22:07:39.939Z,0
2022-09-23T22:09:41.797Z,0
2022-09-23T22:11:43.472Z,0
2022-09-23T22:13:45.083Z,1.544
2022-09-23T22:15:46.779Z,0.561
2022-09-23T22:19:49.374Z,0.28
2022-09-23T22:21:50.981Z,0
2022-09-23T22:25:55.429Z,0
2022-09-23T22:29:56.937Z,0
2022-09-23T22:31:58.670Z,0
2022-09-23T22:34:00.418Z,0
2022-09-23T22:36:01.554Z,0
2022-09-23T22:40:04.400Z,0
2022-09-23T22:42:05.915Z,0
2022-09-23T22:44:07.720Z,0
2022-09-23T22:46:08.694Z,0
2022-09-23T22:48:09.931Z,0
2022-09-23T22:50:11.726Z,0
2022-09-23T22:52:12.775Z,0
2022-09-23T22:54:14.598Z,0
2022-09-23T22:56:16.061Z,0
2022-09-23T22:58:31.495Z,0
2022-09-23T23:00:18.946Z,0
2022-09-23T23:02:20.004Z,0
2022-09-23T23:04:21.952Z,0
2022-09-23T23:06:23.642Z,0
2022-09-23T23:08:25.229Z,0
2022-09-23T23:10:27.027Z,0
2022-09-23T23:12:28.788Z,0
2022-09-23T23:14:30.301Z,0
2022-09-23T23:16:31.325Z,0
2022-09-23T23:18:32.503Z,0
2022-09-23T23:20:34.415Z,0
2022-09-23T23:22:35.746Z,0
2022-09-23T23:24:36.984Z,0
2022-09-23T23:26:38.693Z,0
2022-09-23T23:28:39.902Z,0
2022-09-23T23:30:41.340Z,0
2022-09-23T23:32:42.658Z,0
2022-09-23T23:34:43.844Z,0
2022-09-23T23:36:45.006Z,0
2022-09-23T23:38:46.547Z,0
2022-09-23T23:40:47.993Z,0
2022-09-23T23:42:49.251Z,0
2022-09-23T23:44:51.073Z,0
2022-09-23T23:46:52.708Z,0
2022-09-23T23:48:54.191Z,0
2022-09-23T23:50:55.410Z,0
2022-09-23T23:52:56.712Z,0
2022-09-23T23:57:00.327Z,0
2022-09-23T23:59:01.442Z,0
